createdAt,value
2023-01-30T01:37:28.267Z,2.72
2023-01-30T02:11:26.343Z,2.36
2023-01-30T02:12:26.295Z,2.83
2023-01-30T02:13:26.250Z,3.09
2023-01-30T02:14:26.182Z,3.15
2023-01-30T02:15:26.117Z,2.61
2023-01-30T02:16:26.078Z,3.19
2023-01-30T02:17:26.062Z,2.37
2023-01-30T02:18:25.952Z,2.72
2023-01-30T02:19:25.912Z,2.79
2023-01-30T02:20:25.859Z,2.66
2023-01-30T02:21:25.795Z,2.76
2023-01-30T02:22:25.751Z,2.81
2023-01-30T02:23:25.677Z,2.54
2023-01-30T02:24:25.642Z,2.77
2023-01-30T02:25:25.576Z,2.28
2023-01-30T02:26:25.574Z,2.89
2023-01-30T02:27:25.476Z,2.88
2023-01-30T02:28:25.419Z,2.99
2023-01-30T03:48:21.109Z,2.51
2023-01-30T03:49:21.065Z,2.53
2023-01-30T03:50:21.009Z,2.47
2023-01-30T03:51:20.985Z,2.67
2023-01-30T03:52:20.928Z,2.33
2023-01-30T03:53:20.879Z,2.88
2023-01-30T03:54:20.838Z,2.76
2023-01-30T03:55:20.911Z,2.54
2023-01-30T03:56:20.763Z,2.20
2023-01-30T03:57:20.699Z,2.18
2023-01-30T03:58:20.630Z,2.81
2023-01-30T03:59:20.594Z,2.53
2023-01-30T04:00:20.539Z,3.37
2023-01-30T04:01:20.530Z,2.79
2023-01-30T04:02:20.470Z,2.54
2023-01-30T04:03:20.397Z,2.39
2023-01-30T04:04:20.333Z,2.65
2023-01-30T04:05:20.571Z,2.88
2023-01-30T04:06:20.225Z,2.50
2023-01-30T04:07:20.178Z,2.49
2023-01-30T04:08:20.132Z,2.26
2023-01-30T04:09:20.083Z,2.69
2023-01-30T04:10:20.080Z,2.55
2023-01-30T04:11:19.951Z,2.37
2023-01-30T04:12:19.898Z,2.55
2023-01-30T04:13:19.852Z,2.52
2023-01-30T04:14:19.804Z,2.45
2023-01-30T04:15:20.094Z,2.42
2023-01-30T04:16:19.752Z,2.47
2023-01-30T04:17:19.636Z,2.55
2023-01-30T04:18:19.588Z,2.24
2023-01-30T04:19:19.533Z,3.08
2023-01-30T04:20:19.468Z,2.29
2023-01-30T04:21:19.430Z,2.36
2023-01-30T04:22:19.369Z,2.45
2023-01-30T04:23:19.328Z,2.59
2023-01-30T04:24:19.259Z,2.57
2023-01-30T04:25:19.584Z,2.41
2023-01-30T04:26:19.189Z,2.55
2023-01-30T04:27:19.109Z,2.52
2023-01-30T04:28:19.047Z,2.45
2023-01-30T04:29:18.989Z,2.33
2023-01-30T04:30:18.946Z,2.15
2023-01-30T04:31:18.945Z,2.53
2023-01-30T04:32:18.812Z,2.30
2023-01-30T04:33:18.773Z,2.65
2023-01-30T04:34:18.701Z,2.58
2023-01-30T04:35:18.991Z,2.66
2023-01-30T04:36:18.596Z,2.49
2023-01-30T04:37:18.539Z,2.69
2023-01-30T04:38:18.487Z,2.51
2023-01-30T04:39:20.473Z,2.20
2023-01-30T04:40:18.375Z,2.89
2023-01-30T04:41:18.326Z,2.26
2023-01-30T04:42:18.268Z,2.75
2023-01-30T04:43:18.228Z,2.07
2023-01-30T04:44:18.168Z,2.97
2023-01-30T04:45:18.464Z,2.59
2023-01-30T04:46:18.063Z,2.23
2023-01-30T04:47:18.099Z,2.33
2023-01-30T04:48:17.963Z,2.46
2023-01-30T04:49:17.928Z,2.51
2023-01-30T04:50:17.871Z,2.41
2023-01-30T04:51:17.822Z,2.71
2023-01-30T04:52:17.783Z,2.59
2023-01-30T04:53:17.714Z,2.78
2023-01-30T04:54:17.676Z,2.42
2023-01-30T04:55:17.818Z,2.65
2023-01-30T04:56:17.552Z,2.44
2023-01-30T04:57:17.512Z,2.25
2023-01-30T04:58:17.475Z,2.12
2023-01-30T04:59:17.416Z,2.10
2023-01-30T05:00:17.340Z,2.31
2023-01-30T05:01:17.304Z,2.49
2023-01-30T05:02:17.289Z,2.01
2023-01-30T05:03:17.187Z,2.59
2023-01-30T05:04:17.139Z,2.69
2023-01-30T05:05:17.589Z,2.58
2023-01-30T05:06:17.017Z,2.74
2023-01-30T05:07:16.961Z,2.21
2023-01-30T05:08:16.920Z,2.51
2023-01-30T05:09:16.860Z,2.48
2023-01-30T05:10:16.813Z,2.21
2023-01-30T05:11:16.772Z,2.43
2023-01-30T05:12:16.712Z,2.09
2023-01-30T05:13:16.652Z,2.11
2023-01-30T05:14:16.593Z,2.03
2023-01-30T05:15:17.031Z,2.45
2023-01-30T05:16:16.496Z,2.43
2023-01-30T05:17:16.512Z,2.57
2023-01-30T05:18:16.381Z,2.46
2023-01-30T05:19:16.365Z,2.13
2023-01-30T05:20:16.303Z,2.25
2023-01-30T05:21:16.241Z,2.20
2023-01-30T05:22:16.220Z,2.33
2023-01-30T05:23:16.122Z,2.23
2023-01-30T05:24:16.080Z,2.85
2023-01-30T05:25:16.478Z,2.17
2023-01-30T05:26:16.022Z,2.42
2023-01-30T05:27:15.923Z,2.01
2023-01-30T05:28:15.851Z,2.43
2023-01-30T05:29:15.812Z,2.44
2023-01-30T05:30:15.756Z,2.10
2023-01-30T05:31:15.755Z,2.42
2023-01-30T05:32:15.700Z,2.26
2023-01-30T05:33:15.632Z,2.69
2023-01-30T05:34:15.593Z,2.33
2023-01-30T05:35:15.824Z,2.06
2023-01-30T05:36:15.519Z,2.48
2023-01-30T05:37:15.488Z,2.23
2023-01-30T05:38:15.436Z,2.09
2023-01-30T05:39:15.392Z,1.81
2023-01-30T07:39:08.688Z,2.57
2023-01-30T07:40:08.625Z,2.60
2023-01-30T07:41:08.562Z,2.47
2023-01-30T07:42:08.487Z,2.96
2023-01-30T07:43:08.475Z,2.97
2023-01-30T07:44:08.327Z,3.27
2023-01-30T07:45:08.262Z,3.42
2023-01-30T07:46:08.197Z,2.88
2023-01-30T07:47:08.170Z,2.88
2023-01-30T07:48:08.063Z,2.96
2023-01-30T07:49:07.963Z,3.17
2023-01-30T07:50:07.906Z,3.03
2023-01-30T07:51:07.835Z,3.49
2023-01-30T07:52:07.762Z,2.95
2023-01-30T07:53:07.692Z,2.58
2023-01-30T07:54:07.638Z,3.41
2023-01-30T07:55:07.551Z,2.72
2023-01-30T07:56:07.464Z,2.64
2023-01-30T07:57:07.392Z,3.22
2023-01-30T07:58:07.324Z,2.90
2023-01-30T07:59:07.240Z,3.08
2023-01-30T08:00:07.163Z,2.46
2023-01-30T08:01:07.120Z,2.45
2023-01-30T08:02:07.030Z,2.78
2023-01-30T08:03:06.959Z,2.76
2023-01-30T08:04:06.870Z,2.83
2023-01-30T08:05:06.794Z,2.70
2023-01-30T08:06:06.731Z,2.73
2023-01-30T08:07:06.665Z,2.57
2023-01-30T08:08:06.593Z,3.40
2023-01-30T08:09:06.503Z,3.28
2023-01-30T08:10:06.547Z,2.66
2023-01-30T08:11:06.358Z,2.78
2023-01-30T08:12:06.327Z,2.86
2023-01-30T08:13:06.224Z,3.23
2023-01-30T08:14:06.154Z,2.95
2023-01-30T08:15:06.079Z,2.64
2023-01-30T08:16:05.994Z,3.30
2023-01-30T08:17:05.921Z,3.13
2023-01-30T08:18:05.861Z,3.04
2023-01-30T08:19:05.794Z,2.70
2023-01-30T08:20:05.732Z,2.58
2023-01-30T08:21:05.660Z,3.20
2023-01-30T08:22:05.583Z,3.02
2023-01-30T08:23:05.498Z,2.99
2023-01-30T08:24:05.453Z,2.93
2023-01-30T10:12:58.020Z,3.38
2023-01-30T10:13:57.954Z,3.42
2023-01-30T10:14:57.991Z,3.26
2023-01-30T10:15:57.882Z,2.79
2023-01-30T10:16:57.784Z,3.06
2023-01-30T10:19:45.666Z,3.79
2023-01-30T10:20:45.652Z,3.64
2023-01-30T10:21:45.631Z,3.38
2023-01-30T10:22:45.618Z,4.02
2023-01-30T10:23:45.608Z,3.62
2023-01-30T10:24:45.587Z,3.62
2023-01-30T10:25:45.590Z,4.08
2023-01-30T10:26:45.578Z,3.68
2023-01-30T10:27:45.602Z,3.51
2023-01-30T10:28:49.819Z,2.98
2023-01-30T10:29:46.513Z,3.27
2023-01-30T10:30:45.547Z,3.74
2023-01-30T10:31:45.505Z,3.63
2023-01-30T10:32:45.468Z,3.39
2023-01-30T10:33:45.433Z,3.03
2023-01-30T10:34:45.418Z,3.33
2023-01-30T10:35:45.413Z,3.30
2023-01-30T10:36:45.408Z,3.04
2023-01-30T12:28:42.036Z,7.13
2023-01-30T12:29:42.022Z,7.32
2023-01-30T12:30:41.988Z,6.25
2023-01-30T12:31:42.027Z,6.65
2023-01-30T12:32:41.974Z,7.81
2023-01-30T12:33:41.966Z,7.23
2023-01-30T12:34:41.887Z,7.67
2023-01-30T12:35:41.934Z,7.90
2023-01-30T12:36:41.837Z,8.12
2023-01-30T12:37:41.823Z,7.77
2023-01-30T12:38:41.810Z,7.36
2023-01-30T12:39:41.759Z,7.77
2023-01-30T12:40:41.748Z,7.30
2023-01-30T12:41:41.722Z,6.30
2023-01-30T12:42:41.695Z,7.58
2023-01-30T12:43:41.668Z,6.61
2023-01-30T12:44:41.664Z,6.98
2023-01-30T12:45:41.635Z,6.09
2023-01-30T12:46:41.620Z,6.81
2023-01-30T12:47:41.605Z,5.90
2023-01-30T12:48:48.296Z,6.02
2023-01-30T12:49:42.562Z,6.08
2023-01-30T12:50:41.546Z,5.39
2023-01-30T12:51:41.506Z,5.29
2023-01-30T12:52:41.514Z,5.58
2023-01-30T12:53:41.468Z,5.77
2023-01-30T12:54:41.439Z,5.39
2023-01-30T12:55:41.412Z,4.75
2023-01-30T12:56:41.403Z,5.17
2023-01-30T12:57:41.374Z,4.84
2023-01-30T12:58:41.354Z,4.63
2023-01-30T12:59:41.330Z,4.61
2023-01-30T13:00:41.315Z,5.56
2023-01-30T13:01:41.307Z,4.59
2023-01-30T13:02:41.308Z,4.17
2023-01-30T13:03:41.261Z,4.71
2023-01-30T13:05:01.743Z,4.12
2023-01-30T13:05:42.218Z,4.92
2023-01-30T13:06:41.186Z,4.98
2023-01-30T13:07:41.157Z,4.61
2023-01-30T13:08:41.142Z,4.51
2023-01-30T13:09:41.110Z,4.39
2023-01-30T13:10:41.107Z,4.06
2023-01-30T13:11:41.060Z,3.99
2023-01-30T13:12:41.056Z,4.20
2023-01-30T13:13:41.025Z,4.13
2023-01-30T13:14:41.012Z,3.76
2023-01-30T13:15:41.069Z,3.87
2023-01-30T13:16:40.988Z,4.45
2023-01-30T13:17:40.948Z,3.95
2023-01-30T13:18:40.925Z,3.99
2023-01-30T13:19:41.666Z,3.72
2023-01-30T13:20:40.869Z,3.59
2023-01-30T13:21:40.867Z,3.37
2023-01-30T13:22:40.841Z,3.85
2023-01-30T13:23:40.801Z,4.00
2023-01-30T13:24:40.820Z,4.40
2023-01-30T13:25:40.767Z,3.67
2023-01-30T13:26:40.768Z,3.38
2023-01-30T13:27:40.715Z,3.92
2023-01-30T13:28:40.723Z,3.61
2023-01-30T13:29:40.712Z,3.61
2023-01-30T13:30:40.653Z,3.47
2023-01-30T13:31:40.728Z,3.23
2023-01-30T13:32:40.589Z,3.64
2023-01-30T13:33:40.554Z,3.68
2023-01-30T13:34:40.538Z,3.55
2023-01-30T13:35:40.535Z,3.50
2023-01-30T13:36:40.477Z,4.18
2023-01-30T14:05:48.247Z,2.70
2023-01-30T14:06:41.478Z,2.94
